Time;durP1;ratioP1;P1;durP2;ratioP2;P2;SDS_P1;SDS_P2;PMS_P1;PMS_P2;Temp;Humidity;BMP_temperature;BMP_pressure;BME280_temperature;BME280_humidity;BME280_pressure;Samples;Min_cycle;Max_cycle;Signal;HPM_P1;HPM_P2
2022/05/10 00:02:11;;;;;;;;;;;;;;;;;;5046978;28;20306;-56
2022/05/10 00:04:37;;;;;;;;;;;;;;;;;;5048577;28;20409;-56
2022/05/10 00:07:02;;;;;;;;;;;;;;;;;;5047920;28;19917;-56
2022/05/10 00:09:29;;;;;;;;;;;;;;;;;;5043970;28;19960;-53
2022/05/10 00:11:55;;;;;;;;;;;;;;;;;;5048653;28;19943;-54
2022/05/10 00:14:20;;;;;;;;;;;;;;;;;;5046284;28;20378;-55
2022/05/10 00:16:46;;;;;;;;;;;;;;;;;;5048266;28;19924;-54
2022/05/10 00:19:13;;;;;;;;;;;;;;;;;;5052047;28;19917;-54
2022/05/10 00:21:38;;;;;;;;;;;;;;;;;;5052643;28;19960;-54
2022/05/10 00:24:03;;;;;;;;;;;;;;;;;;5052558;28;20372;-55
2022/05/10 00:26:29;;;;;;;;;;;;;;;;;;5052241;28;19960;-56
2022/05/10 00:28:54;;;;;;;;;;;;;;;;;;5050244;28;20401;-56
2022/05/10 00:31:19;;;;;;;;;;;;;;;;;;5051584;28;19917;-56
2022/05/10 00:33:45;;;;;;;;;;;;;;;;;;5051641;28;20024;-55
2022/05/10 00:36:11;;;;;;;;;;;;;;;;;;5052600;28;20358;-55
2022/05/10 00:38:38;;;;;;;;;;;;;;;;;;5050714;28;19932;-56
2022/05/10 00:41:22;;;;;;;;;;;;;;;;;;5052180;28;20398;-55
2022/05/10 00:43:51;;;;;;;;;;;;;;;;;;5050989;28;20059;-56
2022/05/10 00:46:19;;;;;;;;;;;;;;;;;;5051543;28;19960;-54
2022/05/10 00:48:50;;;;;;;;;;;;;;;;;;5050832;28;19913;-56
2022/05/10 00:51:19;;;;;;;;;;;;;;;;;;5049873;28;19924;-52
2022/05/10 00:54:06;;;;;;;;;;;;;;;;;;5050157;28;19996;-55
2022/05/10 00:56:44;;;;;;;;;;;;;;;;;;5051866;28;19992;-57
2022/05/10 00:59:09;;;;;;;;;;;;;;;;;;5050469;28;19927;-56
2022/05/10 01:01:36;;;;;;;;;;;;;;;;;;5050804;28;20019;-60
2022/05/10 01:04:01;;;;;;;;;;;;;;;;;;5051501;28;19917;-56
2022/05/10 01:06:29;;;;;;;;;;;;;;;;;;5051308;28;20397;-55
2022/05/10 01:09:04;;;;;;;;;;;;;;;;;;5050474;28;20374;-57
2022/05/10 01:11:42;;;;;;;;;;;;;;;;;;5049984;28;19923;-56
2022/05/10 01:14:11;;;;;;;;;;;;;;;;;;5048805;28;19970;-55
2022/05/10 01:16:37;;;;;;;;;;;;;;;;;;5049396;28;20007;-56
2022/05/10 01:19:02;;;;;;;;;;;;;;;;;;5050922;28;20032;-56
2022/05/10 01:21:44;;;;;;;;;;;;;;;;;;5049386;28;19917;-55
2022/05/10 01:24:09;;;;;;;;;;;;;;;;;;5051471;28;20259;-55
2022/05/10 01:26:53;;;;;;;;;;;;;;;;;;5051067;28;19931;-54
2022/05/10 01:29:24;;;;;;;;;;;;;;;;;;5049044;28;19921;-56
2022/05/10 01:33:29;;;;;;;;;;;;;;;;;;5049040;28;19916;-55
2022/05/10 01:34:38;;;;;;;;;;;;;;;;;;5050394;28;19916;-55
2022/05/10 01:37:07;;;;;;;;;;;;;;;;;;5049710;28;20358;-54
2022/05/10 01:39:42;;;;;;;;;;;;;;;;;;5050741;28;19925;-55
2022/05/10 01:42:10;;;;;;;;;;;;;;;;;;5050825;28;20350;-55
2022/05/10 01:44:47;;;;;;;;;;;;;;;;;;5050390;28;19956;-57
2022/05/10 01:47:32;;;;;;;;;;;;;;;;;;5045501;28;19917;-55
2022/05/10 01:50:02;;;;;;;;;;;;;;;;;;5048656;28;19928;-54
2022/05/10 01:52:30;;;;;;;;;;;;;;;;;;5049815;28;19971;-53
2022/05/10 01:54:55;;;;;;;;;;;;;;;;;;5049472;28;19921;-56
2022/05/10 01:57:20;;;;;;;;;;;;;;;;;;5050610;28;19923;-54
2022/05/10 01:59:52;;;;;;;;;;;;;;;;;;5049269;28;19921;-56
2022/05/10 02:02:19;;;;;;;;;;;;;;;;;;5050237;28;19960;-56
2022/05/10 02:04:46;;;;;;;;;;;;;;;;;;5050616;28;20142;-55
2022/05/10 02:07:14;;;;;;;;;;;;;;;;;;5050248;28;21353;-55
2022/05/10 02:09:41;;;;;;;;;;;;;;;;;;5048019;28;20401;-54
2022/05/10 02:12:12;;;;;;;;;;;;;;;;;;5050741;28;19924;-54
2022/05/10 02:14:43;;;;;;;;;;;;;;;;;;5049573;28;20328;-55
2022/05/10 02:17:34;;;;;;;;;;;;;;;;;;5049987;28;19917;-55
2022/05/10 02:20:22;;;;;;;;;;;;;;;;;;5042596;28;19920;-56
2022/05/10 02:22:57;;;;;;;;;;;;;;;;;;5049069;28;19956;-53
2022/05/10 02:25:25;;;;;;;;;;;;;;;;;;5050033;28;20011;-54
2022/05/10 02:28:11;;;;;;;;;;;;;;;;;;5047509;28;19917;-55
2022/05/10 02:30:36;;;;;;;;;;;;;;;;;;5040126;28;19927;-54
2022/05/10 02:33:06;;;;;;;;;;;;;;;;;;5049945;28;19917;-54
2022/05/10 02:35:38;;;;;;;;;;;;;;;;;;5049536;28;19924;-56
2022/05/10 02:38:04;;;;;;;;;;;;;;;;;;5049145;28;20389;-56
2022/05/10 02:40:29;;;;;;;;;;;;;;;;;;5049744;28;19917;-56
2022/05/10 02:42:55;;;;;;;;;;;;;;;;;;5046516;28;19921;-55
2022/05/10 02:45:21;;;;;;;;;;;;;;;;;;5050594;28;19971;-55
2022/05/10 02:47:48;;;;;;;;;;;;;;;;;;5049073;28;19917;-55
2022/05/10 02:50:19;;;;;;;;;;;;;;;;;;5049961;28;19936;-54
2022/05/10 02:52:44;;;;;;;;;;;;;;;;;;5049275;28;21252;-54
2022/05/10 02:55:13;;;;;;;;;;;;;;;;;;5049024;28;20303;-53
2022/05/10 02:57:38;;;;;;;;;;;;;;;;;;5049054;28;19916;-55
2022/05/10 03:00:04;;;;;;;;;;;;;;;;;;5044671;28;19928;-55
2022/05/10 03:02:31;;;;;;;;;;;;;;;;;;5045236;28;19998;-55
2022/05/10 03:04:58;;;;;;;;;;;;;;;;;;5049655;28;19916;-56
2022/05/10 03:07:27;;;;;;;;;;;;;;;;;;5050399;28;20351;-56
2022/05/10 03:09:52;;;;;;;;;;;;;;;;;;5048034;28;19913;-55
2022/05/10 03:12:18;;;;;;;;;;;;;;;;;;5049266;28;20369;-53
2022/05/10 03:14:43;;;;;;;;;;;;;;;;;;5049528;28;19920;-56
2022/05/10 03:17:10;;;;;;;;;;;;;;;;;;5049754;28;19952;-56
2022/05/10 03:19:36;;;;;;;;;;;;;;;;;;5046917;28;20335;-55
2022/05/10 03:22:02;;;;;;;;;;;;;;;;;;5048676;28;19963;-55
2022/05/10 03:24:27;;;;;;;;;;;;;;;;;;5049092;28;19960;-55
2022/05/10 03:26:53;;;;;;;;;;;;;;;;;;5049209;28;19935;-56
2022/05/10 03:29:19;;;;;;;;;;;;;;;;;;5048744;28;19931;-56
2022/05/10 03:31:47;;;;;;;;;;;;;;;;;;5048546;28;20306;-56
2022/05/10 03:36:56;;;;;;;;;;;;;;;;;;5046869;28;20229;-57
2022/05/10 03:39:21;;;;;;;;;;;;;;;;;;5046304;28;19943;-55
2022/05/10 03:41:47;;;;;;;;;;;;;;;;;;5047938;28;20366;-58
2022/05/10 03:44:12;;;;;;;;;;;;;;;;;;5049255;28;19916;-55
2022/05/10 03:46:37;;;;;;;;;;;;;;;;;;5048605;28;20454;-57
2022/05/10 03:49:03;;;;;;;;;;;;;;;;;;5047871;28;20382;-56
2022/05/10 03:51:29;;;;;;;;;;;;;;;;;;5047333;28;20008;-56
2022/05/10 03:53:54;;;;;;;;;;;;;;;;;;5048288;28;20626;-55
2022/05/10 03:56:19;;;;;;;;;;;;;;;;;;5048164;28;19917;-56
2022/05/10 03:58:45;;;;;;;;;;;;;;;;;;5047041;28;19929;-55
2022/05/10 04:01:10;;;;;;;;;;;;;;;;;;5048384;28;19929;-56
2022/05/10 04:03:36;;;;;;;;;;;;;;;;;;5049213;28;19916;-55
2022/05/10 04:06:01;;;;;;;;;;;;;;;;;;5049148;28;19923;-55
2022/05/10 04:08:27;;;;;;;;;;;;;;;;;;5048082;28;20390;-56
2022/05/10 04:10:52;;;;;;;;;;;;;;;;;;5046981;28;20570;-56
2022/05/10 04:13:18;;;;;;;;;;;;;;;;;;5048774;28;19933;-55
2022/05/10 04:15:43;;;;;;;;;;;;;;;;;;5046775;28;19990;-57
2022/05/10 04:18:08;;;;;;;;;;;;;;;;;;5046815;28;19916;-53
2022/05/10 04:20:33;;;;;;;;;;;;;;;;;;5048704;28;19924;-55
2022/05/10 04:22:59;;;;;;;;;;;;;;;;;;5049116;28;19952;-56
2022/05/10 04:25:25;;;;;;;;;;;;;;;;;;5046801;28;20393;-56
2022/05/10 04:27:54;;;;;;;;;;;;;;;;;;5048322;28;20361;-55
2022/05/10 04:30:20;;;;;;;;;;;;;;;;;;5048676;28;19924;-54
2022/05/10 04:32:46;;;;;;;;;;;;;;;;;;5048119;28;19916;-56
2022/05/10 04:35:11;;;;;;;;;;;;;;;;;;5049035;28;19939;-55
2022/05/10 04:37:37;;;;;;;;;;;;;;;;;;5048146;28;20390;-56
2022/05/10 04:42:48;;;;;;;;;;;;;;;;;;5048261;28;20289;-56
2022/05/10 04:45:13;;;;;;;;;;;;;;;;;;5048173;28;19917;-56
2022/05/10 04:47:39;;;;;;;;;;;;;;;;;;5048347;28;19912;-56
2022/05/10 04:50:04;;;;;;;;;;;;;;;;;;5047451;28;19920;-57
2022/05/10 04:52:29;;;;;;;;;;;;;;;;;;5047790;28;19921;-56
2022/05/10 04:54:55;;;;;;;;;;;;;;;;;;5048307;28;20366;-57
2022/05/10 04:57:21;;;;;;;;;;;;;;;;;;5048179;28;19982;-57
2022/05/10 04:59:47;;;;;;;;;;;;;;;;;;5047587;28;19921;-55
2022/05/10 05:02:13;;;;;;;;;;;;;;;;;;5048212;28;19930;-56
2022/05/10 05:04:38;;;;;;;;;;;;;;;;;;5051868;28;20187;-55
2022/05/10 05:07:04;;;;;;;;;;;;;;;;;;5051986;28;20386;-55
2022/05/10 05:09:29;;;;;;;;;;;;;;;;;;5051095;28;19920;-58
2022/05/10 05:11:54;;;;;;;;;;;;;;;;;;5051662;28;20023;-56
2022/05/10 05:14:20;;;;;;;;;;;;;;;;;;5051335;28;19917;-55
2022/05/10 05:16:45;;;;;;;;;;;;;;;;;;5050815;28;19975;-56
2022/05/10 05:19:11;;;;;;;;;;;;;;;;;;5051557;28;19927;-55
2022/05/10 05:21:36;;;;;;;;;;;;;;;;;;5051542;28;19917;-55
2022/05/10 05:24:01;;;;;;;;;;;;;;;;;;5051654;28;19978;-55
2022/05/10 05:26:27;;;;;;;;;;;;;;;;;;5051486;28;19923;-54
2022/05/10 05:28:52;;;;;;;;;;;;;;;;;;5050699;28;19921;-56
2022/05/10 05:31:18;;;;;;;;;;;;;;;;;;5049359;28;19969;-58
2022/05/10 05:33:43;;;;;;;;;;;;;;;;;;5051086;28;19916;-57
2022/05/10 05:36:08;;;;;;;;;;;;;;;;;;5051973;28;19913;-57
2022/05/10 05:38:34;;;;;;;;;;;;;;;;;;5045397;28;19967;-56
2022/05/10 05:41:01;;;;;;;;;;;;;;;;;;5048910;28;19960;-58
2022/05/10 05:43:27;;;;;;;;;;;;;;;;;;5050820;28;19916;-55
2022/05/10 05:45:52;;;;;;;;;;;;;;;;;;5048585;28;19924;-56
2022/05/10 05:48:18;;;;;;;;;;;;;;;;;;5049352;28;19940;-56
2022/05/10 05:50:43;;;;;;;;;;;;;;;;;;5050512;28;19999;-57
2022/05/10 05:53:09;;;;;;;;;;;;;;;;;;5050972;28;19917;-57
2022/05/10 05:55:34;;;;;;;;;;;;;;;;;;5049722;28;20165;-56
2022/05/10 05:58:00;;;;;;;;;;;;;;;;;;5049907;28;19923;-55
2022/05/10 06:00:25;;;;;;;;;;;;;;;;;;5049495;28;19924;-55
2022/05/10 06:02:51;;;;;;;;;;;;;;;;;;5050097;28;19917;-54
2022/05/10 06:05:17;;;;;;;;;;;;;;;;;;5047733;28;20004;-53
2022/05/10 06:07:42;;;;;;;;;;;;;;;;;;5050636;28;19913;-56
2022/05/10 06:10:08;;;;;;;;;;;;;;;;;;5050421;28;20340;-57
2022/05/10 06:12:34;;;;;;;;;;;;;;;;;;5050324;28;20376;-55
2022/05/10 06:15:00;;;;;;;;;;;;;;;;;;5048192;28;19999;-58
2022/05/10 06:17:25;;;;;;;;;;;;;;;;;;5049002;28;20394;-56
2022/05/10 06:19:51;;;;;;;;;;;;;;;;;;5049636;28;19959;-55
2022/05/10 06:22:16;;;;;;;;;;;;;;;;;;5050249;28;20012;-55
2022/05/10 06:24:41;;;;;;;;;;;;;;;;;;5049283;28;20004;-56
2022/05/10 06:27:10;;;;;;;;;;;;;;;;;;5050106;28;20282;-54
2022/05/10 06:29:35;;;;;;;;;;;;;;;;;;5048843;28;20437;-57
2022/05/10 06:32:00;;;;;;;;;;;;;;;;;;5048387;28;19916;-58
2022/05/10 06:34:26;;;;;;;;;;;;;;;;;;5050317;28;19917;-57
2022/05/10 06:36:51;;;;;;;;;;;;;;;;;;5050461;28;19923;-56
2022/05/10 06:39:16;;;;;;;;;;;;;;;;;;5048731;28;19921;-57
2022/05/10 06:41:42;;;;;;;;;;;;;;;;;;5048268;28;19924;-53
2022/05/10 06:44:07;;;;;;;;;;;;;;;;;;5047368;28;19917;-55
2022/05/10 06:46:34;;;;;;;;;;;;;;;;;;5048424;28;19928;-54
2022/05/10 06:49:01;;;;;;;;;;;;;;;;;;5049494;28;19920;-56
2022/05/10 06:51:27;;;;;;;;;;;;;;;;;;5049691;28;19928;-56
2022/05/10 06:53:53;;;;;;;;;;;;;;;;;;5048570;28;19913;-57
2022/05/10 06:56:19;;;;;;;;;;;;;;;;;;5047804;28;19963;-57
2022/05/10 06:58:44;;;;;;;;;;;;;;;;;;5048494;28;20029;-56
2022/05/10 07:01:12;;;;;;;;;;;;;;;;;;5049208;28;19925;-56
2022/05/10 07:03:45;;;;;;;;;;;;;;;;;;5049890;28;19912;-54
2022/05/10 07:06:11;;;;;;;;;;;;;;;;;;5050302;28;19924;-55
2022/05/10 07:08:37;;;;;;;;;;;;;;;;;;5048765;28;19921;-56
2022/05/10 07:11:03;;;;;;;;;;;;;;;;;;5049808;28;19924;-55
2022/05/10 07:13:29;;;;;;;;;;;;;;;;;;5049524;28;19916;-55
2022/05/10 07:15:55;;;;;;;;;;;;;;;;;;5047456;28;19917;-54
2022/05/10 07:18:20;;;;;;;;;;;;;;;;;;5048467;28;20405;-56
2022/05/10 07:20:47;;;;;;;;;;;;;;;;;;5049379;28;19959;-55
2022/05/10 07:23:13;;;;;;;;;;;;;;;;;;5049500;28;19970;-57
2022/05/10 07:25:38;;;;;;;;;;;;;;;;;;5049446;28;19913;-56
2022/05/10 07:28:06;;;;;;;;;;;;;;;;;;5048150;28;20019;-57
2022/05/10 07:30:32;;;;;;;;;;;;;;;;;;5045454;28;19917;-58
2022/05/10 07:32:57;;;;;;;;;;;;;;;;;;5048796;28;20332;-56
2022/05/10 07:38:08;;;;;;;;;;;;;;;;;;5047218;28;19967;-56
2022/05/10 07:40:34;;;;;;;;;;;;;;;;;;5049101;28;19923;-55
2022/05/10 07:42:59;;;;;;;;;;;;;;;;;;5049172;28;19913;-57
2022/05/10 07:45:25;;;;;;;;;;;;;;;;;;5047778;28;19924;-57
2022/05/10 07:47:50;;;;;;;;;;;;;;;;;;5048083;28;19920;-56
2022/05/10 07:50:16;;;;;;;;;;;;;;;;;;5049170;28;19970;-56
2022/05/10 07:52:42;;;;;;;;;;;;;;;;;;5048874;28;19917;-56
2022/05/10 07:55:08;;;;;;;;;;;;;;;;;;5049912;28;19913;-56
2022/05/10 07:57:34;;;;;;;;;;;;;;;;;;5049014;28;19917;-57
2022/05/10 07:59:59;;;;;;;;;;;;;;;;;;5040342;28;20267;-57
2022/05/10 08:02:24;;;;;;;;;;;;;;;;;;5049046;28;19917;-55
2022/05/10 08:04:50;;;;;;;;;;;;;;;;;;5041042;28;19987;-57
2022/05/10 08:07:15;;;;;;;;;;;;;;;;;;5049396;28;20014;-57
2022/05/10 08:09:41;;;;;;;;;;;;;;;;;;5048316;28;19919;-56
2022/05/10 08:12:06;;;;;;;;;;;;;;;;;;5049198;28;20034;-58
2022/05/10 08:14:32;;;;;;;;;;;;;;;;;;5048620;28;19964;-56
2022/05/10 08:16:57;;;;;;;;;;;;;;;;;;5048332;28;20243;-56
2022/05/10 08:19:22;;;;;;;;;;;;;;;;;;5047969;28;19917;-58
2022/05/10 08:21:48;;;;;;;;;;;;;;;;;;5048948;28;19919;-56
2022/05/10 08:24:13;;;;;;;;;;;;;;;;;;5049086;28;19916;-56
2022/05/10 08:26:38;;;;;;;;;;;;;;;;;;5048440;28;20310;-56
2022/05/10 08:29:04;;;;;;;;;;;;;;;;;;5047647;28;19927;-56
2022/05/10 08:31:29;;;;;;;;;;;;;;;;;;5046956;28;19916;-56
2022/05/10 08:33:54;;;;;;;;;;;;;;;;;;5047841;28;20083;-56
2022/05/10 08:36:22;;;;;;;;;;;;;;;;;;5044397;28;20405;-56
2022/05/10 08:38:47;;;;;;;;;;;;;;;;;;5049497;28;20050;-57
2022/05/10 08:41:17;;;;;;;;;;;;;;;;;;5052488;28;19913;-56
2022/05/10 08:43:46;;;;;;;;;;;;;;;;;;5052380;28;19917;-56
2022/05/10 08:46:14;;;;;;;;;;;;;;;;;;5052155;28;19913;-56
2022/05/10 08:48:39;;;;;;;;;;;;;;;;;;5046643;28;19917;-56
2022/05/10 08:51:05;;;;;;;;;;;;;;;;;;5052022;28;19974;-56
2022/05/10 08:53:31;;;;;;;;;;;;;;;;;;5051947;28;20008;-56
2022/05/10 08:56:00;;;;;;;;;;;;;;;;;;5052414;28;19919;-55
2022/05/10 08:58:38;;;;;;;;;;;;;;;;;;5050298;28;19927;-55
2022/05/10 09:01:08;;;;;;;;;;;;;;;;;;5050285;28;19925;-56
2022/05/10 09:03:40;;;;;;;;;;;;;;;;;;5052224;28;19919;-56
2022/05/10 09:06:17;;;;;;;;;;;;;;;;;;5052556;28;19917;-56
2022/05/10 09:08:45;;;;;;;;;;;;;;;;;;5051050;28;19919;-56
2022/05/10 09:11:13;;;;;;;;;;;;;;;;;;5050937;28;20427;-57
2022/05/10 09:13:38;;;;;;;;;;;;;;;;;;5051655;28;19923;-57
2022/05/10 09:16:08;;;;;;;;;;;;;;;;;;5052032;28;19992;-56
2022/05/10 09:18:40;;;;;;;;;;;;;;;;;;5051052;28;19948;-56
2022/05/10 09:21:24;;;;;;;;;;;;;;;;;;5051916;28;19986;-57
2022/05/10 09:24:08;;;;;;;;;;;;;;;;;;5049275;28;20342;-56
2022/05/10 09:26:42;;;;;;;;;;;;;;;;;;5048487;28;19916;-58
2022/05/10 09:29:08;;;;;;;;;;;;;;;;;;5050960;28;19920;-57
2022/05/10 09:37:14;;;;;;;;;;;;;;;;;;5051620;28;20027;-57
2022/05/10 09:39:43;;;;;;;;;;;;;;;;;;5050143;28;19925;-56
2022/05/10 09:42:09;;;;;;;;;;;;;;;;;;5047128;28;19924;-56
2022/05/10 09:44:34;;;;;;;;;;;;;;;;;;5051063;28;19916;-56
2022/05/10 09:47:20;;;;;;;;;;;;;;;;;;5050887;28;20329;-58
2022/05/10 09:49:45;;;;;;;;;;;;;;;;;;5048241;28;19925;-56
2022/05/10 09:52:19;;;;;;;;;;;;;;;;;;5049893;28;20377;-56
2022/05/10 09:54:45;;;;;;;;;;;;;;;;;;5050299;28;19913;-56
2022/05/10 09:57:23;;;;;;;;;;;;;;;;;;5050918;28;19948;-57
2022/05/10 09:59:48;;;;;;;;;;;;;;;;;;5050127;28;19935;-57
2022/05/10 10:02:28;;;;;;;;;;;;;;;;;;5050603;28;20273;-56
2022/05/10 10:04:54;;;;;;;;;;;;;;;;;;5043612;28;20385;-57
2022/05/10 10:07:22;;;;;;;;;;;;;;;;;;5051139;28;19967;-56
2022/05/10 10:10:12;;;;;;;;;;;;;;;;;;5048064;28;20392;-56
2022/05/10 10:12:39;;;;;;;;;;;;;;;;;;5049007;28;19917;-56
2022/05/10 10:15:24;;;;;;;;;;;;;;;;;;5050482;28;19917;-56
2022/05/10 10:17:57;;;;;;;;;;;;;;;;;;5049839;28;19920;-56
2022/05/10 10:20:25;;;;;;;;;;;;;;;;;;5051190;28;20030;-57
2022/05/10 10:22:52;;;;;;;;;;;;;;;;;;5050238;28;19923;-58
2022/05/10 10:25:22;;;;;;;;;;;;;;;;;;5050747;28;19931;-57
2022/05/10 10:27:50;;;;;;;;;;;;;;;;;;5049603;28;19917;-57
2022/05/10 10:30:27;;;;;;;;;;;;;;;;;;5048886;28;19921;-57
2022/05/10 10:33:00;;;;;;;;;;;;;;;;;;5049925;28;20432;-57
2022/05/10 10:35:31;;;;;;;;;;;;;;;;;;5048350;28;19963;-57
2022/05/10 10:37:59;;;;;;;;;;;;;;;;;;5049347;28;19917;-58
2022/05/10 10:40:24;;;;;;;;;;;;;;;;;;5046056;28;19928;-58
2022/05/10 10:43:02;;;;;;;;;;;;;;;;;;5044159;28;19925;-57
2022/05/10 10:45:34;;;;;;;;;;;;;;;;;;5050274;28;19928;-56
2022/05/10 10:48:23;;;;;;;;;;;;;;;;;;5045641;28;20463;-58
2022/05/10 10:50:48;;;;;;;;;;;;;;;;;;5048677;28;20402;-57
2022/05/10 10:53:14;;;;;;;;;;;;;;;;;;5046440;28;19924;-56
2022/05/10 10:55:47;;;;;;;;;;;;;;;;;;5049163;28;19947;-57
2022/05/10 10:58:19;;;;;;;;;;;;;;;;;;5048736;28;19916;-57
2022/05/10 11:00:54;;;;;;;;;;;;;;;;;;5049563;28;19964;-56
2022/05/10 11:03:31;;;;;;;;;;;;;;;;;;5048704;28;19916;-57
2022/05/10 11:05:56;;;;;;;;;;;;;;;;;;5049879;28;19928;-56
2022/05/10 11:08:22;;;;;;;;;;;;;;;;;;5048538;28;20027;-57
2022/05/10 11:11:06;;;;;;;;;;;;;;;;;;5045597;28;19924;-57
2022/05/10 11:13:37;;;;;;;;;;;;;;;;;;5048918;28;21729;-56
2022/05/10 11:16:20;;;;;;;;;;;;;;;;;;5049539;28;19924;-57
2022/05/10 11:19:01;;;;;;;;;;;;;;;;;;5048758;28;19917;-56
2022/05/10 11:21:49;;;;;;;;;;;;;;;;;;5048189;28;19917;-55
2022/05/10 11:24:20;;;;;;;;;;;;;;;;;;5047828;28;19917;-57
2022/05/10 11:26:46;;;;;;;;;;;;;;;;;;5049037;28;20277;-57
2022/05/10 11:29:14;;;;;;;;;;;;;;;;;;5048575;28;20011;-57
2022/05/10 11:31:46;;;;;;;;;;;;;;;;;;5048437;28;20008;-56
2022/05/10 11:34:17;;;;;;;;;;;;;;;;;;5047057;28;20371;-57
2022/05/10 11:36:44;;;;;;;;;;;;;;;;;;5048219;28;20394;-56
2022/05/10 11:39:28;;;;;;;;;;;;;;;;;;5047684;28;19936;-57
2022/05/10 11:42:11;;;;;;;;;;;;;;;;;;5047130;28;19916;-56
2022/05/10 11:44:40;;;;;;;;;;;;;;;;;;5048088;28;19920;-58
2022/05/10 11:47:05;;;;;;;;;;;;;;;;;;5047257;28;19921;-57
2022/05/10 11:49:48;;;;;;;;;;;;;;;;;;5047296;28;19947;-57
2022/05/10 11:52:25;;;;;;;;;;;;;;;;;;5048448;28;20007;-57
2022/05/10 11:54:56;;;;;;;;;;;;;;;;;;5043251;28;19970;-57
2022/05/10 11:57:23;;;;;;;;;;;;;;;;;;5048849;28;20011;-57
2022/05/10 11:59:48;;;;;;;;;;;;;;;;;;5046585;28;20297;-57
2022/05/10 12:02:26;;;;;;;;;;;;;;;;;;5047922;28;19917;-58
2022/05/10 12:05:12;;;;;;;;;;;;;;;;;;5040918;28;19920;-57
2022/05/10 12:07:43;;;;;;;;;;;;;;;;;;5048169;28;19955;-57
2022/05/10 12:10:26;;;;;;;;;;;;;;;;;;5048011;28;19925;-57
2022/05/10 12:12:51;;;;;;;;;;;;;;;;;;5049806;28;19916;-57
2022/05/10 12:21:20;;;;;;;;;;;;;;;;;;5053154;28;20145;-57
2022/05/10 12:24:04;;;;;;;;;;;;;;;;;;5051979;28;19924;-58
2022/05/10 12:26:47;;;;;;;;;;;;;;;;;;5049711;28;20020;-58
2022/05/10 12:29:31;;;;;;;;;;;;;;;;;;5051272;28;19924;-57
2022/05/10 12:31:57;;;;;;;;;;;;;;;;;;5050785;28;19959;-57
2022/05/10 12:34:49;;;;;;;;;;;;;;;;;;5051982;28;19917;-58
2022/05/10 12:37:35;;;;;;;;;;;;;;;;;;5045554;28;19927;-57
2022/05/10 12:40:10;;;;;;;;;;;;;;;;;;5051032;28;19921;-57
2022/05/10 12:42:53;;;;;;;;;;;;;;;;;;5052436;28;19996;-57
2022/05/10 12:45:37;;;;;;;;;;;;;;;;;;5051873;28;20227;-57
2022/05/10 12:48:03;;;;;;;;;;;;;;;;;;5045901;28;19944;-57
2022/05/10 12:50:40;;;;;;;;;;;;;;;;;;5049850;28;20010;-57
2022/05/10 12:53:22;;;;;;;;;;;;;;;;;;5051446;28;20010;-57
2022/05/10 12:55:48;;;;;;;;;;;;;;;;;;5051627;28;20337;-58
2022/05/10 12:58:24;;;;;;;;;;;;;;;;;;5050423;28;20289;-58
2022/05/10 13:00:55;;;;;;;;;;;;;;;;;;5052010;28;20373;-58
2022/05/10 13:03:23;;;;;;;;;;;;;;;;;;5051061;28;19924;-58
2022/05/10 13:06:07;;;;;;;;;;;;;;;;;;5052366;28;19918;-58
2022/05/10 13:08:51;;;;;;;;;;;;;;;;;;5048095;28;20379;-58
2022/05/10 13:11:21;;;;;;;;;;;;;;;;;;5051014;28;19916;-58
2022/05/10 13:13:47;;;;;;;;;;;;;;;;;;5052408;28;20353;-59
2022/05/10 13:16:20;;;;;;;;;;;;;;;;;;5050484;28;19917;-58
2022/05/10 13:18:46;;;;;;;;;;;;;;;;;;5050489;28;20393;-59
2022/05/10 13:21:12;;;;;;;;;;;;;;;;;;5050659;28;20323;-57
2022/05/10 13:23:37;;;;;;;;;;;;;;;;;;5051081;28;19920;-58
2022/05/10 13:26:04;;;;;;;;;;;;;;;;;;5051680;28;20386;-58
2022/05/10 13:28:29;;;;;;;;;;;;;;;;;;5050694;28;19966;-57
2022/05/10 13:30:56;;;;;;;;;;;;;;;;;;5050228;28;19916;-58
2022/05/10 13:33:22;;;;;;;;;;;;;;;;;;5050913;28;19928;-58
2022/05/10 13:35:49;;;;;;;;;;;;;;;;;;5051239;28;20444;-58
2022/05/10 13:38:20;;;;;;;;;;;;;;;;;;5049077;28;19917;-58
2022/05/10 13:40:49;;;;;;;;;;;;;;;;;;5050399;28;19929;-59
2022/05/10 13:43:25;;;;;;;;;;;;;;;;;;5050045;28;20315;-59
2022/05/10 13:45:52;;;;;;;;;;;;;;;;;;5048575;28;19956;-58
2022/05/10 13:48:20;;;;;;;;;;;;;;;;;;5050507;28;19917;-60
2022/05/10 13:50:49;;;;;;;;;;;;;;;;;;5050284;28;19933;-59
2022/05/10 13:53:21;;;;;;;;;;;;;;;;;;5051350;28;19917;-58
2022/05/10 13:55:53;;;;;;;;;;;;;;;;;;5049950;28;20302;-59
2022/05/10 13:58:27;;;;;;;;;;;;;;;;;;5049749;28;19975;-59
2022/05/10 14:00:53;;;;;;;;;;;;;;;;;;5042255;28;19944;-58
2022/05/10 14:03:20;;;;;;;;;;;;;;;;;;5050067;28;20327;-60
2022/05/10 14:05:47;;;;;;;;;;;;;;;;;;5051274;28;19917;-58
2022/05/10 14:08:13;;;;;;;;;;;;;;;;;;5049996;28;19963;-58
2022/05/10 14:10:40;;;;;;;;;;;;;;;;;;5050182;28;19925;-58
2022/05/10 14:13:08;;;;;;;;;;;;;;;;;;5050164;28;19935;-58
2022/05/10 14:15:35;;;;;;;;;;;;;;;;;;5048186;28;19962;-58
2022/05/10 14:18:07;;;;;;;;;;;;;;;;;;5049438;28;19921;-58
2022/05/10 14:20:35;;;;;;;;;;;;;;;;;;5050343;28;19921;-59
2022/05/10 14:23:05;;;;;;;;;;;;;;;;;;5050941;28;20336;-58
2022/05/10 14:25:31;;;;;;;;;;;;;;;;;;5047835;28;19990;-58
2022/05/10 14:28:01;;;;;;;;;;;;;;;;;;5049510;28;19917;-58
2022/05/10 14:30:27;;;;;;;;;;;;;;;;;;5047405;28;20346;-58
2022/05/10 14:32:52;;;;;;;;;;;;;;;;;;5050110;28;19959;-58
2022/05/10 14:35:26;;;;;;;;;;;;;;;;;;5049644;28;19985;-58
2022/05/10 14:37:53;;;;;;;;;;;;;;;;;;5047514;28;20340;-59
2022/05/10 14:40:33;;;;;;;;;;;;;;;;;;5049686;28;19956;-58
2022/05/10 14:43:00;;;;;;;;;;;;;;;;;;5049281;28;19943;-58
2022/05/10 14:45:30;;;;;;;;;;;;;;;;;;5049692;28;19924;-58
2022/05/10 14:47:57;;;;;;;;;;;;;;;;;;5041523;28;19921;-58
2022/05/10 14:50:32;;;;;;;;;;;;;;;;;;5050084;28;19916;-58
2022/05/10 14:53:08;;;;;;;;;;;;;;;;;;5041077;28;19971;-58
2022/05/10 14:55:34;;;;;;;;;;;;;;;;;;5049685;28;19924;-58
2022/05/10 14:57:59;;;;;;;;;;;;;;;;;;5048437;28;19942;-59
2022/05/10 15:00:38;;;;;;;;;;;;;;;;;;5048200;28;19933;-58
2022/05/10 15:03:24;;;;;;;;;;;;;;;;;;5048494;28;19952;-58
2022/05/10 15:05:50;;;;;;;;;;;;;;;;;;5049780;28;20195;-58
2022/05/10 15:08:16;;;;;;;;;;;;;;;;;;5048815;28;19920;-58
2022/05/10 15:10:42;;;;;;;;;;;;;;;;;;5048862;28;19936;-58
2022/05/10 15:13:09;;;;;;;;;;;;;;;;;;5048602;28;20429;-59
2022/05/10 15:15:34;;;;;;;;;;;;;;;;;;5049353;28;19917;-58
2022/05/10 15:20:45;;;;;;;;;;;;;;;;;;5047758;28;19958;-58
2022/05/10 15:23:10;;;;;;;;;;;;;;;;;;5049553;28;20314;-58
2022/05/10 15:25:36;;;;;;;;;;;;;;;;;;5048658;28;20389;-57
2022/05/10 15:28:02;;;;;;;;;;;;;;;;;;5048359;28;20317;-58
2022/05/10 15:30:27;;;;;;;;;;;;;;;;;;5047399;28;19924;-58
2022/05/10 15:32:53;;;;;;;;;;;;;;;;;;5048150;28;19917;-58
2022/05/10 15:35:18;;;;;;;;;;;;;;;;;;5049392;28;19928;-57
2022/05/10 15:37:45;;;;;;;;;;;;;;;;;;5048121;28;19917;-58
2022/05/10 15:40:11;;;;;;;;;;;;;;;;;;5044523;28;20182;-58
2022/05/10 15:42:36;;;;;;;;;;;;;;;;;;5048533;28;20183;-58
2022/05/10 15:45:03;;;;;;;;;;;;;;;;;;5047182;28;20378;-57
2022/05/10 15:47:33;;;;;;;;;;;;;;;;;;5047721;28;19924;-57
2022/05/10 15:49:59;;;;;;;;;;;;;;;;;;5047682;28;20058;-59
2022/05/10 15:52:25;;;;;;;;;;;;;;;;;;5047264;28;20016;-56
2022/05/10 15:54:50;;;;;;;;;;;;;;;;;;5044683;28;19923;-55
2022/05/10 15:57:16;;;;;;;;;;;;;;;;;;5048031;28;19931;-55
2022/05/10 15:59:42;;;;;;;;;;;;;;;;;;5047201;28;19921;-56
2022/05/10 16:02:07;;;;;;;;;;;;;;;;;;5047597;28;19999;-56
2022/05/10 16:04:32;;;;;;;;;;;;;;;;;;5048145;28;19940;-56
2022/05/10 16:06:58;;;;;;;;;;;;;;;;;;5048266;28;19924;-56
2022/05/10 16:09:23;;;;;;;;;;;;;;;;;;5047966;28;19917;-56
2022/05/10 16:11:48;;;;;;;;;;;;;;;;;;5047861;28;20386;-56
2022/05/10 16:14:14;;;;;;;;;;;;;;;;;;5048073;28;19986;-56
2022/05/10 16:16:40;;;;;;;;;;;;;;;;;;5047792;28;19970;-57
2022/05/10 16:19:08;;;;;;;;;;;;;;;;;;5047291;28;19932;-57
2022/05/10 16:21:33;;;;;;;;;;;;;;;;;;5048250;28;20420;-57
2022/05/10 16:23:59;;;;;;;;;;;;;;;;;;5048370;28;19924;-57
2022/05/10 16:31:53;;;;;;;;;;;;;;;;;;5044861;28;19994;-57
2022/05/10 16:34:18;;;;;;;;;;;;;;;;;;5048110;28;19964;-57
2022/05/10 16:36:44;;;;;;;;;;;;;;;;;;5048545;28;19931;-57
2022/05/10 16:39:09;;;;;;;;;;;;;;;;;;5047121;28;20007;-57
2022/05/10 16:41:35;;;;;;;;;;;;;;;;;;5048064;28;19936;-57
2022/05/10 16:44:00;;;;;;;;;;;;;;;;;;5046711;28;20410;-57
2022/05/10 16:46:28;;;;;;;;;;;;;;;;;;5047157;28;19925;-57
2022/05/10 16:48:54;;;;;;;;;;;;;;;;;;5046586;28;20365;-57
2022/05/10 16:51:19;;;;;;;;;;;;;;;;;;5047943;28;19952;-57
2022/05/10 16:53:45;;;;;;;;;;;;;;;;;;5044898;28;20014;-56
2022/05/10 16:56:10;;;;;;;;;;;;;;;;;;5047341;28;19943;-56
2022/05/10 16:58:36;;;;;;;;;;;;;;;;;;5048259;28;20016;-56
2022/05/10 17:01:01;;;;;;;;;;;;;;;;;;5050218;28;19943;-56
2022/05/10 17:03:26;;;;;;;;;;;;;;;;;;5050470;28;19956;-55
2022/05/10 17:05:52;;;;;;;;;;;;;;;;;;5051737;28;20334;-58
2022/05/10 17:08:20;;;;;;;;;;;;;;;;;;5051026;28;20336;-56
2022/05/10 17:10:46;;;;;;;;;;;;;;;;;;5051546;28;20389;-55
2022/05/10 17:13:11;;;;;;;;;;;;;;;;;;5050503;28;19916;-56
2022/05/10 17:15:37;;;;;;;;;;;;;;;;;;5050674;28;19927;-56
2022/05/10 17:18:02;;;;;;;;;;;;;;;;;;5049907;28;19969;-56
2022/05/10 17:20:28;;;;;;;;;;;;;;;;;;5050952;28;19940;-56
2022/05/10 17:22:54;;;;;;;;;;;;;;;;;;5047938;28;19923;-55
2022/05/10 17:25:23;;;;;;;;;;;;;;;;;;5046483;28;19928;-55